Hunter, Arkansas
Current Conditions -  °F | °C
As of 3:56 AM on Friday 21 Nov 2014 (Local Time) from KSRC Reporting Station
Light Rain Light Rain  
Wind Chill: 37°   Ceiling: 1800
Heat Index: 41°   Visibility: 10mi
Dew Point: 35°   Wind: 6mph
Humidity: 79%   Direction: 30°NNE
Pressure: 30.27"   Gusts: NA
Location:  35.05°N, 91.13°W
Report Text: KSRC 210956Z AUTO 03005KT 10SM -RA OVC018 05/02 A3027 RMK AO2 RAB15 SLP258 P0000 T00500017 TSNO
Loading
Personal Weather Stations






























Interactive Weather Map New forecast layout! Learn more

10-Day Weather Forecast

Advertisements
Track Severe Weather on mobile